sensor_id;sensor_type;location;lat;lon;timestamp;temperature;humidity
18291;DHT22;9271;48.590;8.866;2023-05-29T00:01:27;15.50;76.50
18291;DHT22;9271;48.590;8.866;2023-05-29T00:03:54;15.40;77.50
18291;DHT22;9271;48.590;8.866;2023-05-29T00:06:21;15.50;76.60
18291;DHT22;9271;48.590;8.866;2023-05-29T00:08:48;15.40;75.10
18291;DHT22;9271;48.590;8.866;2023-05-29T00:11:15;15.20;77.10
18291;DHT22;9271;48.590;8.866;2023-05-29T00:13:44;15.00;78.70
18291;DHT22;9271;48.590;8.866;2023-05-29T00:16:13;15.00;80.80
18291;DHT22;9271;48.590;8.866;2023-05-29T00:18:43;15.10;82.40
18291;DHT22;9271;48.590;8.866;2023-05-29T00:21:14;15.20;80.90
18291;DHT22;9271;48.590;8.866;2023-05-29T00:23:44;15.20;81.20
18291;DHT22;9271;48.590;8.866;2023-05-29T00:26:11;15.20;82.30
18291;DHT22;9271;48.590;8.866;2023-05-29T00:28:39;15.40;79.60
18291;DHT22;9271;48.590;8.866;2023-05-29T00:31:07;15.40;80.00
18291;DHT22;9271;48.590;8.866;2023-05-29T00:33:34;15.50;78.60
18291;DHT22;9271;48.590;8.866;2023-05-29T00:36:01;15.50;78.60
18291;DHT22;9271;48.590;8.866;2023-05-29T00:38:28;15.20;79.50
18291;DHT22;9271;48.590;8.866;2023-05-29T00:40:55;15.10;79.80
18291;DHT22;9271;48.590;8.866;2023-05-29T00:43:24;15.20;82.00
18291;DHT22;9271;48.590;8.866;2023-05-29T00:45:51;15.10;80.10
18291;DHT22;9271;48.590;8.866;2023-05-29T00:48:19;15.10;82.00
18291;DHT22;9271;48.590;8.866;2023-05-29T00:50:46;15.00;81.90
18291;DHT22;9271;48.590;8.866;2023-05-29T00:53:14;14.90;82.30
18291;DHT22;9271;48.590;8.866;2023-05-29T00:55:42;14.90;84.40
18291;DHT22;9271;48.590;8.866;2023-05-29T00:58:09;14.80;83.10
18291;DHT22;9271;48.590;8.866;2023-05-29T01:00:36;14.80;83.90
18291;DHT22;9271;48.590;8.866;2023-05-29T01:03:06;14.90;83.80
18291;DHT22;9271;48.590;8.866;2023-05-29T01:05:35;14.80;84.20
18291;DHT22;9271;48.590;8.866;2023-05-29T01:08:02;14.70;85.40
18291;DHT22;9271;48.590;8.866;2023-05-29T01:10:29;14.60;86.00
18291;DHT22;9271;48.590;8.866;2023-05-29T01:12:59;14.50;87.30
18291;DHT22;9271;48.590;8.866;2023-05-29T01:15:36;14.40;87.70
18291;DHT22;9271;48.590;8.866;2023-05-29T01:18:12;14.50;88.40
18291;DHT22;9271;48.590;8.866;2023-05-29T01:20:52;14.40;87.70
18291;DHT22;9271;48.590;8.866;2023-05-29T01:23:34;14.20;89.00
18291;DHT22;9271;48.590;8.866;2023-05-29T01:26:11;14.10;89.60
18291;DHT22;9271;48.590;8.866;2023-05-29T01:28:47;14.00;90.00
18291;DHT22;9271;48.590;8.866;2023-05-29T01:31:16;13.90;90.30
18291;DHT22;9271;48.590;8.866;2023-05-29T01:33:52;14.00;90.10
18291;DHT22;9271;48.590;8.866;2023-05-29T01:36:19;14.20;90.20
18291;DHT22;9271;48.590;8.866;2023-05-29T01:38:46;14.20;89.40
18291;DHT22;9271;48.590;8.866;2023-05-29T01:41:16;14.30;88.90
18291;DHT22;9271;48.590;8.866;2023-05-29T01:43:45;14.50;87.60
18291;DHT22;9271;48.590;8.866;2023-05-29T01:46:13;14.50;88.40
18291;DHT22;9271;48.590;8.866;2023-05-29T01:48:41;14.60;87.70
18291;DHT22;9271;48.590;8.866;2023-05-29T01:51:08;14.60;86.90
18291;DHT22;9271;48.590;8.866;2023-05-29T01:53:36;14.60;86.80
18291;DHT22;9271;48.590;8.866;2023-05-29T01:56:04;14.70;87.20
18291;DHT22;9271;48.590;8.866;2023-05-29T01:58:32;14.80;86.90
18291;DHT22;9271;48.590;8.866;2023-05-29T02:01:02;15.00;85.60
18291;DHT22;9271;48.590;8.866;2023-05-29T02:03:29;15.00;85.70
18291;DHT22;9271;48.590;8.866;2023-05-29T02:05:57;14.90;85.90
18291;DHT22;9271;48.590;8.866;2023-05-29T02:08:24;14.80;86.10
18291;DHT22;9271;48.590;8.866;2023-05-29T02:10:51;14.60;86.20
18291;DHT22;9271;48.590;8.866;2023-05-29T02:13:18;14.50;87.80
18291;DHT22;9271;48.590;8.866;2023-05-29T02:15:46;14.30;88.40
18291;DHT22;9271;48.590;8.866;2023-05-29T02:18:15;14.20;88.20
18291;DHT22;9271;48.590;8.866;2023-05-29T02:20:44;14.20;89.70
18291;DHT22;9271;48.590;8.866;2023-05-29T02:23:12;14.10;89.40
18291;DHT22;9271;48.590;8.866;2023-05-29T02:25:40;14.10;89.40
18291;DHT22;9271;48.590;8.866;2023-05-29T02:28:07;14.00;90.00
18291;DHT22;9271;48.590;8.866;2023-05-29T02:30:34;14.00;90.20
18291;DHT22;9271;48.590;8.866;2023-05-29T02:33:04;13.90;90.60
18291;DHT22;9271;48.590;8.866;2023-05-29T02:35:33;14.00;90.20
18291;DHT22;9271;48.590;8.866;2023-05-29T02:38:01;14.10;89.00
18291;DHT22;9271;48.590;8.866;2023-05-29T02:40:27;14.00;90.00
18291;DHT22;9271;48.590;8.866;2023-05-29T02:42:56;14.10;90.00
18291;DHT22;9271;48.590;8.866;2023-05-29T02:45:23;14.00;88.70
18291;DHT22;9271;48.590;8.866;2023-05-29T02:47:49;14.00;90.20
18291;DHT22;9271;48.590;8.866;2023-05-29T02:50:16;13.90;89.60
18291;DHT22;9271;48.590;8.866;2023-05-29T02:52:45;13.70;90.40
18291;DHT22;9271;48.590;8.866;2023-05-29T02:55:11;13.70;90.60
18291;DHT22;9271;48.590;8.866;2023-05-29T02:57:38;13.60;90.80
18291;DHT22;9271;48.590;8.866;2023-05-29T03:00:07;13.60;91.00
18291;DHT22;9271;48.590;8.866;2023-05-29T03:02:35;13.70;91.00
18291;DHT22;9271;48.590;8.866;2023-05-29T03:05:01;13.70;90.20
18291;DHT22;9271;48.590;8.866;2023-05-29T03:07:28;13.60;90.80
18291;DHT22;9271;48.590;8.866;2023-05-29T03:09:58;13.70;90.80
18291;DHT22;9271;48.590;8.866;2023-05-29T03:12:25;13.80;90.70
18291;DHT22;9271;48.590;8.866;2023-05-29T03:14:53;13.70;90.70
18291;DHT22;9271;48.590;8.866;2023-05-29T03:17:22;13.80;90.60
18291;DHT22;9271;48.590;8.866;2023-05-29T03:19:48;13.80;90.60
18291;DHT22;9271;48.590;8.866;2023-05-29T03:22:16;13.80;90.40
18291;DHT22;9271;48.590;8.866;2023-05-29T03:24:43;13.60;90.90
18291;DHT22;9271;48.590;8.866;2023-05-29T03:27:11;13.70;90.90
18291;DHT22;9271;48.590;8.866;2023-05-29T03:29:38;13.50;91.40
18291;DHT22;9271;48.590;8.866;2023-05-29T03:32:05;13.50;91.70
18291;DHT22;9271;48.590;8.866;2023-05-29T03:34:32;13.50;92.00
18291;DHT22;9271;48.590;8.866;2023-05-29T03:36:59;13.60;91.50
18291;DHT22;9271;48.590;8.866;2023-05-29T03:39:27;13.50;91.50
18291;DHT22;9271;48.590;8.866;2023-05-29T03:41:54;13.50;92.10
18291;DHT22;9271;48.590;8.866;2023-05-29T03:44:23;13.50;92.20
18291;DHT22;9271;48.590;8.866;2023-05-29T03:46:50;13.50;91.90
18291;DHT22;9271;48.590;8.866;2023-05-29T03:49:18;13.40;92.30
18291;DHT22;9271;48.590;8.866;2023-05-29T03:51:45;13.40;91.40
18291;DHT22;9271;48.590;8.866;2023-05-29T03:54:12;13.50;91.70
18291;DHT22;9271;48.590;8.866;2023-05-29T03:56:38;13.50;91.90
18291;DHT22;9271;48.590;8.866;2023-05-29T03:59:05;13.60;92.00
18291;DHT22;9271;48.590;8.866;2023-05-29T04:01:34;13.70;91.80
18291;DHT22;9271;48.590;8.866;2023-05-29T04:04:01;13.80;91.70
18291;DHT22;9271;48.590;8.866;2023-05-29T04:06:28;13.80;91.50
18291;DHT22;9271;48.590;8.866;2023-05-29T04:08:55;13.80;91.50
18291;DHT22;9271;48.590;8.866;2023-05-29T04:11:22;13.80;91.90
18291;DHT22;9271;48.590;8.866;2023-05-29T04:13:49;14.00;91.80
18291;DHT22;9271;48.590;8.866;2023-05-29T04:16:16;14.10;91.50
18291;DHT22;9271;48.590;8.866;2023-05-29T04:18:44;14.00;91.40
18291;DHT22;9271;48.590;8.866;2023-05-29T04:21:11;14.00;91.60
18291;DHT22;9271;48.590;8.866;2023-05-29T04:23:38;14.10;91.40
18291;DHT22;9271;48.590;8.866;2023-05-29T04:26:05;14.20;91.60
18291;DHT22;9271;48.590;8.866;2023-05-29T04:28:32;14.20;91.00
18291;DHT22;9271;48.590;8.866;2023-05-29T04:30:59;14.20;90.60
18291;DHT22;9271;48.590;8.866;2023-05-29T04:33:26;14.30;91.30
18291;DHT22;9271;48.590;8.866;2023-05-29T04:35:55;14.40;91.40
18291;DHT22;9271;48.590;8.866;2023-05-29T04:38:22;14.30;91.10
18291;DHT22;9271;48.590;8.866;2023-05-29T04:40:50;14.40;90.10
18291;DHT22;9271;48.590;8.866;2023-05-29T04:43:17;14.50;90.80
18291;DHT22;9271;48.590;8.866;2023-05-29T04:45:44;14.70;90.60
18291;DHT22;9271;48.590;8.866;2023-05-29T04:48:11;14.60;91.00
18291;DHT22;9271;48.590;8.866;2023-05-29T04:50:37;14.60;91.10
18291;DHT22;9271;48.590;8.866;2023-05-29T04:53:05;14.70;91.00
18291;DHT22;9271;48.590;8.866;2023-05-29T04:55:32;14.80;91.20
18291;DHT22;9271;48.590;8.866;2023-05-29T04:57:59;14.90;90.90
18291;DHT22;9271;48.590;8.866;2023-05-29T05:00:26;15.00;90.80
18291;DHT22;9271;48.590;8.866;2023-05-29T05:02:53;15.30;90.70
18291;DHT22;9271;48.590;8.866;2023-05-29T05:05:20;15.50;90.10
18291;DHT22;9271;48.590;8.866;2023-05-29T05:07:47;15.50;90.30
18291;DHT22;9271;48.590;8.866;2023-05-29T05:10:15;15.70;89.60
18291;DHT22;9271;48.590;8.866;2023-05-29T05:12:42;15.80;89.30
18291;DHT22;9271;48.590;8.866;2023-05-29T05:15:09;15.90;89.10
18291;DHT22;9271;48.590;8.866;2023-05-29T05:17:36;15.90;88.80
18291;DHT22;9271;48.590;8.866;2023-05-29T05:20:03;16.10;88.80
18291;DHT22;9271;48.590;8.866;2023-05-29T05:22:31;16.20;88.40
18291;DHT22;9271;48.590;8.866;2023-05-29T05:24:58;16.20;88.00
18291;DHT22;9271;48.590;8.866;2023-05-29T05:27:27;16.30;88.50
18291;DHT22;9271;48.590;8.866;2023-05-29T05:29:53;16.40;87.80
18291;DHT22;9271;48.590;8.866;2023-05-29T05:32:20;16.50;87.30
18291;DHT22;9271;48.590;8.866;2023-05-29T05:34:47;16.60;86.70
18291;DHT22;9271;48.590;8.866;2023-05-29T05:37:13;16.90;86.70
18291;DHT22;9271;48.590;8.866;2023-05-29T05:39:40;17.10;85.10
18291;DHT22;9271;48.590;8.866;2023-05-29T05:42:07;17.20;85.50
18291;DHT22;9271;48.590;8.866;2023-05-29T05:44:35;17.40;85.30
18291;DHT22;9271;48.590;8.866;2023-05-29T05:47:01;17.60;84.90
18291;DHT22;9271;48.590;8.866;2023-05-29T05:49:29;17.80;83.80
18291;DHT22;9271;48.590;8.866;2023-05-29T05:51:55;17.60;83.70
18291;DHT22;9271;48.590;8.866;2023-05-29T05:54:22;17.70;83.60
18291;DHT22;9271;48.590;8.866;2023-05-29T05:56:49;17.80;83.20
18291;DHT22;9271;48.590;8.866;2023-05-29T05:59:15;18.10;83.40
18291;DHT22;9271;48.590;8.866;2023-05-29T06:01:43;18.40;81.50
18291;DHT22;9271;48.590;8.866;2023-05-29T06:04:10;18.60;81.40
18291;DHT22;9271;48.590;8.866;2023-05-29T06:06:37;18.80;81.40
18291;DHT22;9271;48.590;8.866;2023-05-29T06:09:03;19.10;80.40
18291;DHT22;9271;48.590;8.866;2023-05-29T06:11:30;19.20;79.20
18291;DHT22;9271;48.590;8.866;2023-05-29T06:13:58;19.50;78.60
18291;DHT22;9271;48.590;8.866;2023-05-29T06:16:25;19.60;77.90
18291;DHT22;9271;48.590;8.866;2023-05-29T06:18:53;19.70;78.40
18291;DHT22;9271;48.590;8.866;2023-05-29T06:21:20;19.70;76.50
18291;DHT22;9271;48.590;8.866;2023-05-29T06:23:47;19.90;76.10
18291;DHT22;9271;48.590;8.866;2023-05-29T06:26:14;20.00;75.60
18291;DHT22;9271;48.590;8.866;2023-05-29T06:28:41;20.30;74.20
18291;DHT22;9271;48.590;8.866;2023-05-29T06:31:08;20.20;74.00
18291;DHT22;9271;48.590;8.866;2023-05-29T06:33:35;20.60;73.30
18291;DHT22;9271;48.590;8.866;2023-05-29T06:36:04;20.80;72.00
18291;DHT22;9271;48.590;8.866;2023-05-29T06:38:30;21.20;70.00
18291;DHT22;9271;48.590;8.866;2023-05-29T06:40:57;21.20;69.90
18291;DHT22;9271;48.590;8.866;2023-05-29T06:43:24;21.20;71.00
18291;DHT22;9271;48.590;8.866;2023-05-29T06:45:51;21.50;70.70
18291;DHT22;9271;48.590;8.866;2023-05-29T06:48:17;21.70;69.80
18291;DHT22;9271;48.590;8.866;2023-05-29T06:50:44;21.80;68.40
18291;DHT22;9271;48.590;8.866;2023-05-29T06:53:12;21.90;67.90
18291;DHT22;9271;48.590;8.866;2023-05-29T06:55:39;22.10;67.50
18291;DHT22;9271;48.590;8.866;2023-05-29T06:58:06;22.00;66.50
18291;DHT22;9271;48.590;8.866;2023-05-29T07:00:33;22.00;66.70
18291;DHT22;9271;48.590;8.866;2023-05-29T07:02:59;22.10;65.30
18291;DHT22;9271;48.590;8.866;2023-05-29T07:05:26;22.10;65.20
18291;DHT22;9271;48.590;8.866;2023-05-29T07:07:53;22.20;64.70
18291;DHT22;9271;48.590;8.866;2023-05-29T07:10:21;22.20;64.70
18291;DHT22;9271;48.590;8.866;2023-05-29T07:12:48;22.40;65.20
18291;DHT22;9271;48.590;8.866;2023-05-29T07:15:14;22.50;65.20
18291;DHT22;9271;48.590;8.866;2023-05-29T07:17:41;22.70;63.90
18291;DHT22;9271;48.590;8.866;2023-05-29T07:20:08;22.60;64.80
18291;DHT22;9271;48.590;8.866;2023-05-29T07:22:35;22.40;66.40
18291;DHT22;9271;48.590;8.866;2023-05-29T07:25:03;22.50;64.00
18291;DHT22;9271;48.590;8.866;2023-05-29T07:27:31;22.50;64.30
18291;DHT22;9271;48.590;8.866;2023-05-29T07:29:57;23.10;63.40
18291;DHT22;9271;48.590;8.866;2023-05-29T07:32:24;23.90;62.10
18291;DHT22;9271;48.590;8.866;2023-05-29T07:34:51;25.00;59.30
18291;DHT22;9271;48.590;8.866;2023-05-29T07:37:17;25.70;57.70
18291;DHT22;9271;48.590;8.866;2023-05-29T07:39:44;26.60;55.40
18291;DHT22;9271;48.590;8.866;2023-05-29T07:42:11;27.90;53.30
18291;DHT22;9271;48.590;8.866;2023-05-29T07:44:39;28.90;50.40
18291;DHT22;9271;48.590;8.866;2023-05-29T07:47:07;29.70;48.30
18291;DHT22;9271;48.590;8.866;2023-05-29T07:49:34;30.50;46.50
18291;DHT22;9271;48.590;8.866;2023-05-29T07:52:01;31.00;45.60
18291;DHT22;9271;48.590;8.866;2023-05-29T07:54:27;31.30;44.50
18291;DHT22;9271;48.590;8.866;2023-05-29T07:56:54;31.90;42.80
18291;DHT22;9271;48.590;8.866;2023-05-29T07:59:21;32.60;41.30
18291;DHT22;9271;48.590;8.866;2023-05-29T08:01:50;33.50;39.40
18291;DHT22;9271;48.590;8.866;2023-05-29T08:04:17;33.40;38.20
18291;DHT22;9271;48.590;8.866;2023-05-29T08:06:43;33.90;38.30
18291;DHT22;9271;48.590;8.866;2023-05-29T08:09:10;34.70;36.00
18291;DHT22;9271;48.590;8.866;2023-05-29T08:11:37;34.60;35.60
18291;DHT22;9271;48.590;8.866;2023-05-29T08:14:03;34.40;35.50
18291;DHT22;9271;48.590;8.866;2023-05-29T08:16:30;34.80;35.50
18291;DHT22;9271;48.590;8.866;2023-05-29T08:18:58;35.00;35.10
18291;DHT22;9271;48.590;8.866;2023-05-29T08:21:25;35.20;34.20
18291;DHT22;9271;48.590;8.866;2023-05-29T08:23:52;35.40;34.20
18291;DHT22;9271;48.590;8.866;2023-05-29T08:26:19;36.10;33.40
18291;DHT22;9271;48.590;8.866;2023-05-29T08:28:46;36.90;32.80
18291;DHT22;9271;48.590;8.866;2023-05-29T08:31:12;37.20;31.80
18291;DHT22;9271;48.590;8.866;2023-05-29T08:33:39;37.30;31.50
18291;DHT22;9271;48.590;8.866;2023-05-29T08:36:07;38.20;30.30
18291;DHT22;9271;48.590;8.866;2023-05-29T08:38:34;37.40;30.30
18291;DHT22;9271;48.590;8.866;2023-05-29T08:41:01;37.70;29.40
18291;DHT22;9271;48.590;8.866;2023-05-29T08:43:31;38.20;29.00
18291;DHT22;9271;48.590;8.866;2023-05-29T08:46:00;38.50;29.00
18291;DHT22;9271;48.590;8.866;2023-05-29T08:48:27;38.60;28.80
18291;DHT22;9271;48.590;8.866;2023-05-29T08:50:56;38.80;28.70
18291;DHT22;9271;48.590;8.866;2023-05-29T08:53:25;38.80;28.50
18291;DHT22;9271;48.590;8.866;2023-05-29T08:55:52;38.70;28.80
18291;DHT22;9271;48.590;8.866;2023-05-29T08:58:21;39.80;27.40
18291;DHT22;9271;48.590;8.866;2023-05-29T09:00:49;40.90;26.70
18291;DHT22;9271;48.590;8.866;2023-05-29T09:03:16;40.90;26.20
18291;DHT22;9271;48.590;8.866;2023-05-29T09:05:45;40.50;26.30
18291;DHT22;9271;48.590;8.866;2023-05-29T09:08:13;39.90;26.00
18291;DHT22;9271;48.590;8.866;2023-05-29T09:10:42;39.50;25.80
18291;DHT22;9271;48.590;8.866;2023-05-29T09:13:09;40.30;26.10
18291;DHT22;9271;48.590;8.866;2023-05-29T09:15:37;40.70;25.40
18291;DHT22;9271;48.590;8.866;2023-05-29T09:18:05;40.90;24.00
18291;DHT22;9271;48.590;8.866;2023-05-29T09:20:33;40.40;24.00
18291;DHT22;9271;48.590;8.866;2023-05-29T09:23:03;40.60;24.00
18291;DHT22;9271;48.590;8.866;2023-05-29T09:25:31;40.90;22.90
18291;DHT22;9271;48.590;8.866;2023-05-29T09:28:01;40.50;23.90
18291;DHT22;9271;48.590;8.866;2023-05-29T09:30:32;39.80;23.50
18291;DHT22;9271;48.590;8.866;2023-05-29T09:32:59;39.10;24.60
18291;DHT22;9271;48.590;8.866;2023-05-29T09:35:32;40.10;24.10
18291;DHT22;9271;48.590;8.866;2023-05-29T09:37:59;40.20;23.40
18291;DHT22;9271;48.590;8.866;2023-05-29T09:40:26;39.30;23.20
18291;DHT22;9271;48.590;8.866;2023-05-29T09:42:53;38.90;23.60
18291;DHT22;9271;48.590;8.866;2023-05-29T09:45:21;38.90;23.30
18291;DHT22;9271;48.590;8.866;2023-05-29T09:47:50;38.10;25.30
18291;DHT22;9271;48.590;8.866;2023-05-29T09:50:19;39.30;23.90
18291;DHT22;9271;48.590;8.866;2023-05-29T09:52:46;40.10;23.20
18291;DHT22;9271;48.590;8.866;2023-05-29T09:55:18;39.80;23.10
18291;DHT22;9271;48.590;8.866;2023-05-29T09:57:47;39.80;23.50
18291;DHT22;9271;48.590;8.866;2023-05-29T10:00:15;39.10;23.80
18291;DHT22;9271;48.590;8.866;2023-05-29T10:02:44;40.30;24.50
18291;DHT22;9271;48.590;8.866;2023-05-29T10:05:11;40.40;23.80
18291;DHT22;9271;48.590;8.866;2023-05-29T10:07:43;39.60;22.80
18291;DHT22;9271;48.590;8.866;2023-05-29T10:10:12;38.10;23.90
18291;DHT22;9271;48.590;8.866;2023-05-29T10:12:41;37.30;24.50
18291;DHT22;9271;48.590;8.866;2023-05-29T10:15:12;37.10;25.20
18291;DHT22;9271;48.590;8.866;2023-05-29T10:17:46;38.50;24.50
18291;DHT22;9271;48.590;8.866;2023-05-29T10:20:16;39.30;24.60
18291;DHT22;9271;48.590;8.866;2023-05-29T10:22:45;38.90;25.30
18291;DHT22;9271;48.590;8.866;2023-05-29T10:25:13;39.90;24.40
18291;DHT22;9271;48.590;8.866;2023-05-29T10:27:41;40.00;24.40
18291;DHT22;9271;48.590;8.866;2023-05-29T10:30:13;40.10;23.70
18291;DHT22;9271;48.590;8.866;2023-05-29T10:32:51;39.00;24.90
18291;DHT22;9271;48.590;8.866;2023-05-29T10:35:27;39.00;24.00
18291;DHT22;9271;48.590;8.866;2023-05-29T10:37:59;39.30;25.50
18291;DHT22;9271;48.590;8.866;2023-05-29T10:40:29;39.80;24.10
18291;DHT22;9271;48.590;8.866;2023-05-29T10:42:55;39.30;24.10
18291;DHT22;9271;48.590;8.866;2023-05-29T10:45:51;39.30;25.70
18291;DHT22;9271;48.590;8.866;2023-05-29T10:48:40;41.20;24.60
18291;DHT22;9271;48.590;8.866;2023-05-29T10:51:08;42.10;23.80
18291;DHT22;9271;48.590;8.866;2023-05-29T10:53:35;42.00;23.70
18291;DHT22;9271;48.590;8.866;2023-05-29T10:56:08;41.00;23.90
18291;DHT22;9271;48.590;8.866;2023-05-29T10:58:40;41.70;24.30
18291;DHT22;9271;48.590;8.866;2023-05-29T11:01:08;42.60;23.20
18291;DHT22;9271;48.590;8.866;2023-05-29T11:03:36;43.20;22.60
18291;DHT22;9271;48.590;8.866;2023-05-29T11:06:04;43.20;23.00
18291;DHT22;9271;48.590;8.866;2023-05-29T11:08:33;43.00;22.90
18291;DHT22;9271;48.590;8.866;2023-05-29T11:11:03;43.10;23.20
18291;DHT22;9271;48.590;8.866;2023-05-29T11:13:32;42.10;22.90
18291;DHT22;9271;48.590;8.866;2023-05-29T11:16:11;40.60;24.30
18291;DHT22;9271;48.590;8.866;2023-05-29T11:18:41;40.10;24.10
18291;DHT22;9271;48.590;8.866;2023-05-29T11:21:21;40.30;24.70
18291;DHT22;9271;48.590;8.866;2023-05-29T11:23:50;40.40;24.40
18291;DHT22;9271;48.590;8.866;2023-05-29T11:26:17;39.00;25.50
18291;DHT22;9271;48.590;8.866;2023-05-29T11:28:45;39.10;25.80
18291;DHT22;9271;48.590;8.866;2023-05-29T11:31:13;39.20;24.90
18291;DHT22;9271;48.590;8.866;2023-05-29T11:33:48;40.50;24.20
18291;DHT22;9271;48.590;8.866;2023-05-29T11:36:17;41.80;22.80
18291;DHT22;9271;48.590;8.866;2023-05-29T11:38:43;41.00;22.60
18291;DHT22;9271;48.590;8.866;2023-05-29T11:41:10;40.70;22.50
18291;DHT22;9271;48.590;8.866;2023-05-29T11:43:37;39.90;23.00
18291;DHT22;9271;48.590;8.866;2023-05-29T11:46:15;39.80;24.00
18291;DHT22;9271;48.590;8.866;2023-05-29T11:48:46;39.40;24.10
18291;DHT22;9271;48.590;8.866;2023-05-29T11:51:13;39.80;24.10
18291;DHT22;9271;48.590;8.866;2023-05-29T11:53:40;40.60;23.70
18291;DHT22;9271;48.590;8.866;2023-05-29T11:56:09;41.30;23.20
18291;DHT22;9271;48.590;8.866;2023-05-29T11:58:36;42.40;23.10
18291;DHT22;9271;48.590;8.866;2023-05-29T12:01:02;42.90;22.40
18291;DHT22;9271;48.590;8.866;2023-05-29T12:03:29;41.60;22.40
18291;DHT22;9271;48.590;8.866;2023-05-29T12:05:57;39.60;23.50
18291;DHT22;9271;48.590;8.866;2023-05-29T12:08:24;40.20;24.80
18291;DHT22;9271;48.590;8.866;2023-05-29T12:10:52;40.80;23.50
18291;DHT22;9271;48.590;8.866;2023-05-29T12:13:20;40.30;23.60
18291;DHT22;9271;48.590;8.866;2023-05-29T12:15:48;39.10;23.40
18291;DHT22;9271;48.590;8.866;2023-05-29T12:18:15;38.30;24.60
18291;DHT22;9271;48.590;8.866;2023-05-29T12:20:42;36.80;25.60
18291;DHT22;9271;48.590;8.866;2023-05-29T12:23:10;37.80;25.10
18291;DHT22;9271;48.590;8.866;2023-05-29T12:25:38;38.50;24.10
18291;DHT22;9271;48.590;8.866;2023-05-29T12:28:05;39.60;23.60
18291;DHT22;9271;48.590;8.866;2023-05-29T12:30:37;39.70;23.90
18291;DHT22;9271;48.590;8.866;2023-05-29T12:33:03;40.70;23.50
18291;DHT22;9271;48.590;8.866;2023-05-29T12:35:31;41.50;22.80
18291;DHT22;9271;48.590;8.866;2023-05-29T12:38:00;40.80;21.70
18291;DHT22;9271;48.590;8.866;2023-05-29T12:40:29;39.00;23.80
18291;DHT22;9271;48.590;8.866;2023-05-29T12:42:58;40.50;24.00
18291;DHT22;9271;48.590;8.866;2023-05-29T12:45:26;41.30;21.40
18291;DHT22;9271;48.590;8.866;2023-05-29T12:47:54;41.30;22.50
18291;DHT22;9271;48.590;8.866;2023-05-29T12:50:22;41.50;21.60
18291;DHT22;9271;48.590;8.866;2023-05-29T12:52:56;41.30;21.10
18291;DHT22;9271;48.590;8.866;2023-05-29T12:55:23;40.80;21.90
18291;DHT22;9271;48.590;8.866;2023-05-29T12:57:52;40.00;21.60
18291;DHT22;9271;48.590;8.866;2023-05-29T13:00:19;40.50;22.20
18291;DHT22;9271;48.590;8.866;2023-05-29T13:02:47;39.20;21.70
18291;DHT22;9271;48.590;8.866;2023-05-29T13:05:14;39.10;23.30
18291;DHT22;9271;48.590;8.866;2023-05-29T13:07:41;39.70;22.80
18291;DHT22;9271;48.590;8.866;2023-05-29T13:10:09;39.80;21.40
18291;DHT22;9271;48.590;8.866;2023-05-29T13:12:36;39.50;22.60
18291;DHT22;9271;48.590;8.866;2023-05-29T13:15:04;39.50;21.30
18291;DHT22;9271;48.590;8.866;2023-05-29T13:17:31;38.80;22.00
18291;DHT22;9271;48.590;8.866;2023-05-29T13:19:58;39.00;22.40
18291;DHT22;9271;48.590;8.866;2023-05-29T13:22:25;39.80;22.00
18291;DHT22;9271;48.590;8.866;2023-05-29T13:24:56;40.10;21.90
18291;DHT22;9271;48.590;8.866;2023-05-29T13:27:23;40.30;20.50
18291;DHT22;9271;48.590;8.866;2023-05-29T13:29:50;39.60;21.20
18291;DHT22;9271;48.590;8.866;2023-05-29T13:32:18;39.10;21.80
18291;DHT22;9271;48.590;8.866;2023-05-29T13:34:45;37.80;22.20
18291;DHT22;9271;48.590;8.866;2023-05-29T13:37:11;37.80;22.30
18291;DHT22;9271;48.590;8.866;2023-05-29T13:39:38;38.90;22.40
18291;DHT22;9271;48.590;8.866;2023-05-29T13:42:05;39.70;21.30
18291;DHT22;9271;48.590;8.866;2023-05-29T13:44:32;39.00;21.30
18291;DHT22;9271;48.590;8.866;2023-05-29T13:46:59;38.90;22.30
18291;DHT22;9271;48.590;8.866;2023-05-29T13:49:27;39.20;22.00
18291;DHT22;9271;48.590;8.866;2023-05-29T13:51:54;39.70;22.20
18291;DHT22;9271;48.590;8.866;2023-05-29T13:54:20;39.00;21.00
18291;DHT22;9271;48.590;8.866;2023-05-29T13:56:47;38.80;21.00
18291;DHT22;9271;48.590;8.866;2023-05-29T13:59:14;38.70;21.90
18291;DHT22;9271;48.590;8.866;2023-05-29T14:01:41;39.10;21.70
18291;DHT22;9271;48.590;8.866;2023-05-29T14:04:08;38.20;20.00
18291;DHT22;9271;48.590;8.866;2023-05-29T14:06:36;37.40;20.70
18291;DHT22;9271;48.590;8.866;2023-05-29T14:09:03;37.10;21.60
18291;DHT22;9271;48.590;8.866;2023-05-29T14:11:30;37.20;22.10
18291;DHT22;9271;48.590;8.866;2023-05-29T14:14:00;36.90;23.30
18291;DHT22;9271;48.590;8.866;2023-05-29T14:16:27;36.60;22.30
18291;DHT22;9271;48.590;8.866;2023-05-29T14:18:53;36.50;22.40
18291;DHT22;9271;48.590;8.866;2023-05-29T14:21:20;37.10;22.30
18291;DHT22;9271;48.590;8.866;2023-05-29T14:23:48;36.60;22.50
18291;DHT22;9271;48.590;8.866;2023-05-29T14:26:15;36.20;22.00
18291;DHT22;9271;48.590;8.866;2023-05-29T14:28:41;35.80;22.30
18291;DHT22;9271;48.590;8.866;2023-05-29T14:31:08;35.20;23.10
18291;DHT22;9271;48.590;8.866;2023-05-29T14:33:35;35.40;23.50
18291;DHT22;9271;48.590;8.866;2023-05-29T14:36:03;34.80;22.10
18291;DHT22;9271;48.590;8.866;2023-05-29T14:38:29;34.70;22.90
18291;DHT22;9271;48.590;8.866;2023-05-29T14:40:57;34.80;22.80
18291;DHT22;9271;48.590;8.866;2023-05-29T14:43:24;35.10;22.60
18291;DHT22;9271;48.590;8.866;2023-05-29T14:45:51;35.20;22.70
18291;DHT22;9271;48.590;8.866;2023-05-29T14:48:17;35.30;23.10
18291;DHT22;9271;48.590;8.866;2023-05-29T14:50:44;34.90;23.20
18291;DHT22;9271;48.590;8.866;2023-05-29T14:53:10;34.70;24.10
18291;DHT22;9271;48.590;8.866;2023-05-29T14:55:37;34.90;23.30
18291;DHT22;9271;48.590;8.866;2023-05-29T14:58:05;34.90;23.20
18291;DHT22;9271;48.590;8.866;2023-05-29T15:00:32;34.60;23.10
18291;DHT22;9271;48.590;8.866;2023-05-29T15:02:59;34.50;23.70
18291;DHT22;9271;48.590;8.866;2023-05-29T15:05:25;34.60;23.80
18291;DHT22;9271;48.590;8.866;2023-05-29T15:07:52;34.20;23.10
18291;DHT22;9271;48.590;8.866;2023-05-29T15:10:22;34.00;23.30
18291;DHT22;9271;48.590;8.866;2023-05-29T15:12:49;33.90;24.10
18291;DHT22;9271;48.590;8.866;2023-05-29T15:15:23;33.90;24.30
18291;DHT22;9271;48.590;8.866;2023-05-29T15:17:50;34.10;23.50
18291;DHT22;9271;48.590;8.866;2023-05-29T15:20:19;34.00;23.60
18291;DHT22;9271;48.590;8.866;2023-05-29T15:22:46;33.70;23.10
18291;DHT22;9271;48.590;8.866;2023-05-29T15:25:13;33.00;23.50
18291;DHT22;9271;48.590;8.866;2023-05-29T15:27:40;32.80;23.80
18291;DHT22;9271;48.590;8.866;2023-05-29T15:30:10;33.10;24.40
18291;DHT22;9271;48.590;8.866;2023-05-29T15:32:39;32.60;24.50
18291;DHT22;9271;48.590;8.866;2023-05-29T15:35:07;32.60;24.60
18291;DHT22;9271;48.590;8.866;2023-05-29T15:37:34;32.40;23.70
18291;DHT22;9271;48.590;8.866;2023-05-29T15:40:01;32.40;23.90
18291;DHT22;9271;48.590;8.866;2023-05-29T15:42:28;32.20;24.40
18291;DHT22;9271;48.590;8.866;2023-05-29T15:44:55;31.90;25.70
18291;DHT22;9271;48.590;8.866;2023-05-29T15:47:22;32.00;26.00
18291;DHT22;9271;48.590;8.866;2023-05-29T15:49:50;31.90;25.80